^^
Datos históricos de la estación: Murcia-Puente Tocinos
Diario Informe para Septiembre 26, 2019 Unidades:  Ambas    Ingés   Métrico
Diario Semanal Mensual Anual
  Máxima: Mínima: Promedio:
Temperatura: 79 °F /  26.1 °C 59.4 °F /  15.2 °C 69.6 °F /  20.9 °C
Punto de rocio: 56.7 °F /  13.7 °C 50 °F /  10 °C 52.9 °F /  11.6 °C
Humedad: 84% 37% 58%
Velocidad viento: 15.9mph /  25.6km/h - 6.1mph /  9.8km/h
Racha viento: 28mph /  45.1km/h - -
Viento- - SSE
Presión: 30 in /  1017.3 hPa 29.9 in /  1011.6 hPa -
Precipitación: 0 in /  0.0 mm    
 
 
Tabla de datos para Septiembre 26, 2019
Hora Temperatura Punto de rocio Presión Viento Velocidad viento Racha viento Humedad Intensidad lluvia(por hora) Nubes
00:04 64.9 °F /  18.3 °C 55.2 °F /  12.9 °C 30in /  1017.2hPa ESE 3.6mph /  5.8km/h 7mph /  11.3km/h 71% 0in /  0.0mm
00:09 64.9 °F /  18.3 °C 55.2 °F /  12.9 °C 30in /  1017.2hPa ESE 3.6mph /  5.8km/h 6mph /  9.7km/h 71% 0in /  0.0mm
00:14 64.9 °F /  18.3 °C 55.2 °F /  12.9 °C 30in /  1017.2hPa ESE 3.6mph /  5.8km/h 6.2mph /  10km/h 71% 0in /  0.0mm
00:19 64.8 °F /  18.2 °C 55 °F /  12.8 °C 30in /  1017.3hPa ESE 3.7mph /  6km/h 6.9mph /  11.1km/h 71% 0in /  0.0mm
00:24 64.8 °F /  18.2 °C 55 °F /  12.8 °C 30in /  1017.3hPa ESE 4mph /  6.5km/h 7mph /  11.3km/h 71% 0in /  0.0mm
00:29 64.9 °F /  18.3 °C 55.2 °F /  12.9 °C 30in /  1017.3hPa ESE 3.9mph /  6.2km/h 7mph /  11.3km/h 71% 0in /  0.0mm
00:34 64.9 °F /  18.3 °C 55.2 °F /  12.9 °C 30in /  1017.3hPa ESE 3.6mph /  5.8km/h 6mph /  9.7km/h 71% 0in /  0.0mm
00:39 64.9 °F /  18.3 °C 55.2 °F /  12.9 °C 30in /  1017.3hPa ESE 3.4mph /  5.5km/h 6mph /  9.7km/h 71% 0in /  0.0mm
00:44 64.9 °F /  18.3 °C 55.2 °F /  12.9 °C 30in /  1017.3hPa ESE 3.1mph /  5km/h 6mph /  9.7km/h 71% 0in /  0.0mm
00:49 64.9 °F /  18.3 °C 55.2 °F /  12.9 °C 30in /  1017.3hPa ESE 3mph /  4.9km/h 5.2mph /  8.4km/h 71% 0in /  0.0mm
00:54 64.9 °F /  18.3 °C 55.2 °F /  12.9 °C 30in /  1017.2hPa ESE 2.9mph /  4.7km/h 5.8mph /  9.3km/h 71% 0in /  0.0mm
00:59 64.8 °F /  18.2 °C 55 °F /  12.8 °C 30in /  1017.2hPa Este 3mph /  4.8km/h 6mph /  9.7km/h 71% 0in /  0.0mm
01:04 64.8 °F /  18.2 °C 55 °F /  12.8 °C 30in /  1017.2hPa Este 3.1mph /  5km/h 5mph /  8km/h 71% 0in /  0.0mm
01:09 64.8 °F /  18.2 °C 55 °F /  12.8 °C 30in /  1017.1hPa Este 2.7mph /  4.3km/h 5mph /  8km/h 71% 0in /  0.0mm
01:14 64.8 °F /  18.2 °C 55 °F /  12.8 °C 30in /  1017.1hPa Este 2mph /  3.2km/h 5mph /  8km/h 71% 0in /  0.0mm
01:19 64.8 °F /  18.2 °C 55.2 °F /  12.9 °C 30in /  1017.1hPa ESE 1.2mph /  2km/h 2.4mph /  3.9km/h 71.2% 0in /  0.0mm
01:24 64.6 °F /  18.1 °C 55.4 °F /  13 °C 30in /  1016.9hPa Calm   3.6mph /  5.8km/h 72% 0in /  0.0mm
01:29 64.2 °F /  17.9 °C 55 °F /  12.8 °C 30in /  1016.9hPa NNO 0.6mph /  1km/h 4mph /  6.4km/h 72% 0in /  0.0mm
01:34 64.2 °F /  17.9 °C 55.2 °F /  12.9 °C 30in /  1016.9hPa NNO 1.8mph /  2.9km/h 3.1mph /  5km/h 72.8% 0in /  0.0mm
01:39 64 °F /  17.8 °C 55.2 °F /  12.9 °C 30in /  1016.9hPa NNO 1.8mph /  2.9km/h 4.6mph /  7.4km/h 73% 0in /  0.0mm
01:44 63.9 °F /  17.7 °C 55.4 °F /  13 °C 30in /  1016.9hPa NNO 1.8mph /  2.9km/h 5mph /  8km/h 73.8% 0in /  0.0mm
01:49 63.7 °F /  17.6 °C 55.2 °F /  12.9 °C 30in /  1016.9hPa NNO 2mph /  3.2km/h 5mph /  8km/h 74% 0in /  0.0mm
01:54 63.3 °F /  17.4 °C 55.2 °F /  12.9 °C 30in /  1016.8hPa ONO 2.4mph /  3.9km/h 5mph /  8km/h 74.7% 0in /  0.0mm
01:59 63.3 °F /  17.4 °C 55.2 °F /  12.9 °C 30in /  1016.8hPa Oeste 2.4mph /  3.9km/h 5mph /  8km/h 75% 0in /  0.0mm
02:04 63.1 °F /  17.3 °C 55.2 °F /  12.9 °C 30in /  1016.8hPa Oeste 2.4mph /  3.9km/h 3mph /  4.8km/h 75% 0in /  0.0mm
02:09 63.1 °F /  17.3 °C 55 °F /  12.8 °C 30in /  1016.8hPa Oeste 1.5mph /  2.4km/h 2.3mph /  3.7km/h 75% 0in /  0.0mm
02:14 63.1 °F /  17.3 °C 55.4 °F /  13 °C 30in /  1016.8hPa Calm   3.5mph /  5.6km/h 75.9% 0in /  0.0mm
02:19 63 °F /  17.2 °C 55.2 °F /  12.9 °C 30in /  1016.9hPa Oeste 0.5mph /  0.8km/h 3mph /  4.8km/h 76% 0in /  0.0mm
02:24 63 °F /  17.2 °C 55.2 °F /  12.9 °C 30in /  1016.9hPa Oeste 1.4mph /  2.2km/h 2mph /  3.2km/h 76% 0in /  0.0mm
02:29 63 °F /  17.2 °C 55.2 °F /  12.9 °C 30in /  1016.9hPa Oeste 0.9mph /  1.4km/h   76% 0in /  0.0mm
02:34 63 °F /  17.2 °C 55.2 °F /  12.9 °C 30in /  1016.9hPa Calm   5.9mph /  9.5km/h 76% 0in /  0.0mm
02:39 63 °F /  17.2 °C 55.2 °F /  12.9 °C 30in /  1016.8hPa SE 0.9mph /  1.4km/h 6mph /  9.7km/h 76% 0in /  0.0mm
02:44 63 °F /  17.2 °C 55.6 °F /  13.1 °C 30in /  1016.8hPa SSE 2.4mph /  3.9km/h 5mph /  8km/h 76.8% 0in /  0.0mm
02:49 63.1 °F /  17.3 °C 55.9 °F /  13.3 °C 30in /  1016.8hPa SSE 2.7mph /  4.3km/h 5.2mph /  8.4km/h 77.5% 0in /  0.0mm
02:54 63.1 °F /  17.3 °C 55.8 °F /  13.2 °C 30in /  1016.6hPa SE 3.1mph /  5km/h 5mph /  8km/h 77% 0in /  0.0mm
02:59 63 °F /  17.2 °C 55.8 °F /  13.2 °C 30in /  1016.6hPa SE 2.8mph /  4.5km/h 5mph /  8km/h 77% 0in /  0.0mm
03:04 63 °F /  17.2 °C 55.6 °F /  13.1 °C 30in /  1016.6hPa SSE 2.4mph /  3.9km/h 5.2mph /  8.4km/h 77% 0in /  0.0mm
03:09 63 °F /  17.2 °C 55.8 °F /  13.2 °C 30in /  1016.5hPa SSO 2.7mph /  4.3km/h 5.8mph /  9.3km/h 77.6% 0in /  0.0mm
03:14 63 °F /  17.2 °C 55.9 °F /  13.3 °C 30in /  1016.5hPa SSO 3.1mph /  5km/h 6mph /  9.7km/h 78% 0in /  0.0mm
03:19 63 °F /  17.2 °C 55.9 °F /  13.3 °C 30in /  1016.5hPa SSO 3.3mph /  5.3km/h 5.8mph /  9.3km/h 78% 0in /  0.0mm
03:24 63 °F /  17.2 °C 55.9 °F /  13.3 °C 30in /  1016.3hPa SO 3.6mph /  5.8km/h 6mph /  9.7km/h 78% 0in /  0.0mm
03:29 63 °F /  17.2 °C 55.9 °F /  13.3 °C 30in /  1016.3hPa SO 3.4mph /  5.4km/h 5mph /  8km/h 78% 0in /  0.0mm
03:34 63 °F /  17.2 °C 55.9 °F /  13.3 °C 30in /  1016.3hPa SSO 2.9mph /  4.7km/h 5mph /  8km/h 78% 0in /  0.0mm
03:39 63 °F /  17.2 °C 55.9 °F /  13.3 °C 30in /  1016.1hPa SSE 2.7mph /  4.4km/h 5.8mph /  9.3km/h 78% 0in /  0.0mm
03:44 62.8 °F /  17.1 °C 55.8 °F /  13.2 °C 30in /  1016.1hPa SE 2.4mph /  3.9km/h 6mph /  9.7km/h 78% 0in /  0.0mm
03:49 62.4 °F /  16.9 °C 55.6 °F /  13.1 °C 30in /  1016.1hPa Sur 2.7mph /  4.3km/h 5.2mph /  8.4km/h 78% 0in /  0.0mm
03:54 62.1 °F /  16.7 °C 55.4 °F /  13 °C 30in /  1015.9hPa Sur 3.1mph /  5km/h 5.4mph /  8.7km/h 78.8% 0in /  0.0mm
03:59 61.9 °F /  16.6 °C 55.4 °F /  13 °C 30in /  1015.9hPa Sur 3.1mph /  5km/h 5.2mph /  8.4km/h 79% 0in /  0.0mm
04:04 61.9 °F /  16.6 °C 55.6 °F /  13.1 °C 30in /  1015.9hPa Sur 3.1mph /  5km/h 5mph /  8km/h 79.8% 0in /  0.0mm
04:09 61.9 °F /  16.6 °C 55.6 °F /  13.1 °C 30in /  1015.9hPa Sur 2.7mph /  4.4km/h 5mph /  8km/h 80% 0in /  0.0mm
04:14 61.9 °F /  16.6 °C 55.6 °F /  13.1 °C 30in /  1015.9hPa Sur 2mph /  3.2km/h 4mph /  6.4km/h 80% 0in /  0.0mm
04:19 61.9 °F /  16.6 °C 55.6 °F /  13.1 °C 30in /  1016.0hPa Sur 1.2mph /  2km/h 4.3mph /  6.9km/h 80% 0in /  0.0mm
04:24 61.7 °F /  16.5 °C 55.4 °F /  13 °C 30in /  1016.0hPa Calm   5mph /  8km/h 80% 0in /  0.0mm
04:29 61.5 °F /  16.4 °C 55.2 °F /  12.9 °C 30in /  1016.0hPa Sur 0.9mph /  1.4km/h 5.2mph /  8.4km/h 80% 0in /  0.0mm
04:34 61.3 °F /  16.3 °C 55.4 °F /  13 °C 30in /  1016.0hPa Sur 2.4mph /  3.9km/h 5mph /  8km/h 80.5% 0in /  0.0mm
04:39 61.3 °F /  16.3 °C 55.6 °F /  13.1 °C 30in /  1015.9hPa SSO 2.8mph /  4.5km/h 5.9mph /  9.5km/h 81% 0in /  0.0mm
04:44 61.3 °F /  16.3 °C 55.6 °F /  13.1 °C 30in /  1015.9hPa SSO 3.6mph /  5.8km/h 6mph /  9.7km/h 81% 0in /  0.0mm
04:49 61.3 °F /  16.3 °C 55.6 °F /  13.1 °C 30in /  1015.9hPa SO 3.4mph /  5.5km/h 5.2mph /  8.4km/h 81% 0in /  0.0mm
04:54 61.3 °F /  16.3 °C 55.6 °F /  13.1 °C 30in /  1015.9hPa OSO 3.1mph /  5km/h 5.4mph /  8.7km/h 81% 0in /  0.0mm
04:59 61.3 °F /  16.3 °C 55.6 °F /  13.1 °C 30in /  1015.9hPa OSO 3mph /  4.9km/h 6mph /  9.7km/h 81% 0in /  0.0mm
05:04 61.3 °F /  16.3 °C 55.4 °F /  13 °C 30in /  1015.9hPa OSO 2.9mph /  4.7km/h 5mph /  8km/h 81% 0in /  0.0mm
05:09 61.2 °F /  16.2 °C 55.4 °F /  13 °C 30in /  1015.8hPa SSO 2.9mph /  4.7km/h 5mph /  8km/h 81% 0in /  0.0mm
05:14 61.2 °F /  16.2 °C 55.2 °F /  12.9 °C 30in /  1015.8hPa Sur 2.9mph /  4.7km/h 5.8mph /  9.3km/h 81% 0in /  0.0mm
05:19 61.2 °F /  16.2 °C 55.2 °F /  12.9 °C 30in /  1015.8hPa Sur 3mph /  4.8km/h 6mph /  9.7km/h 81% 0in /  0.0mm
05:24 61 °F /  16.1 °C 55.2 °F /  12.9 °C 30in /  1015.7hPa Sur 3.1mph /  5km/h 6mph /  9.7km/h 81.7% 0in /  0.0mm
05:29 60.6 °F /  15.9 °C 55.2 °F /  12.9 °C 30in /  1015.7hPa SSO 3.4mph /  5.5km/h 6mph /  9.7km/h 82% 0in /  0.0mm
05:34 60.6 °F /  15.9 °C 55.2 °F /  12.9 °C 30in /  1015.8hPa Sur 4mph /  6.5km/h 6mph /  9.7km/h 82.4% 0in /  0.0mm
05:39 60.4 °F /  15.8 °C 55.4 °F /  13 °C 30in /  1015.8hPa SSE 3.7mph /  5.9km/h 5.8mph /  9.3km/h 83% 0in /  0.0mm
05:44 60.4 °F /  15.8 °C 55.2 °F /  12.9 °C 30in /  1015.8hPa SE 3.1mph /  5km/h 6mph /  9.7km/h 83% 0in /  0.0mm
05:49 60.3 °F /  15.7 °C 55 °F /  12.8 °C 30in /  1015.8hPa SSE 3.1mph /  5km/h 5mph /  8km/h 83% 0in /  0.0mm
05:54 59.9 °F /  15.5 °C 54.9 °F /  12.7 °C 30in /  1015.5hPa Sur 3.1mph /  5km/h 5mph /  8km/h 83.4% 0in /  0.0mm
05:59 59.7 °F /  15.4 °C 54.9 °F /  12.7 °C 30in /  1015.5hPa Sur 2.7mph /  4.3km/h 4mph /  6.4km/h 84% 0in /  0.0mm
06:04 59.7 °F /  15.4 °C 54.9 °F /  12.7 °C 30in /  1015.5hPa Sur 2mph /  3.2km/h 3mph /  4.8km/h 84% 0in /  0.0mm
06:09 59.7 °F /  15.4 °C 54.9 °F /  12.7 °C 30in /  1015.5hPa Sur 1.2mph /  2km/h 2.3mph /  3.7km/h 84% 0in /  0.0mm
06:14 59.5 °F /  15.3 °C 54.7 °F /  12.6 °C 30in /  1015.5hPa Calm     84% 0in /  0.0mm
06:19 59.5 °F /  15.3 °C 54.7 °F /  12.6 °C 30in /  1015.6hPa Calm   3.5mph /  5.6km/h 84% 0in /  0.0mm
06:24 59.5 °F /  15.3 °C 54.7 °F /  12.6 °C 30in /  1015.6hPa Calm   4.7mph /  7.6km/h 84% 0in /  0.0mm
06:29 59.5 °F /  15.3 °C 54.7 °F /  12.6 °C 30in /  1015.6hPa Oeste 1.1mph /  1.8km/h 6.2mph /  10km/h 84% 0in /  0.0mm
06:34 59.4 °F /  15.2 °C 54.5 °F /  12.5 °C 30in /  1015.6hPa Oeste 2.9mph /  4.7km/h 6mph /  9.7km/h 84% 0in /  0.0mm
06:39 59.4 °F /  15.2 °C 54.5 °F /  12.5 °C 30in /  1015.6hPa OSO 2.7mph /  4.4km/h 5mph /  8km/h 84% 0in /  0.0mm
06:44 59.4 °F /  15.2 °C 54.5 °F /  12.5 °C 30in /  1015.6hPa OSO 2.4mph /  3.9km/h 5mph /  8km/h 84% 0in /  0.0mm
06:49 59.4 °F /  15.2 °C 54.5 °F /  12.5 °C 30in /  1015.6hPa OSO 2.2mph /  3.6km/h 3.6mph /  5.8km/h 84% 0in /  0.0mm
06:54 59.5 °F /  15.3 °C 54.5 °F /  12.5 °C 30in /  1015.6hPa OSO 2mph /  3.2km/h 4mph /  6.4km/h 83.1% 0in /  0.0mm
06:59 59.5 °F /  15.3 °C 54.3 °F /  12.4 °C 30in /  1015.6hPa OSO 1.9mph /  3.1km/h 4.6mph /  7.4km/h 83% 0in /  0.0mm
07:04 59.5 °F /  15.3 °C 54.5 °F /  12.5 °C 30in /  1015.7hPa OSO 1.8mph /  2.9km/h 5mph /  8km/h 83% 0in /  0.0mm
07:09 59.7 °F /  15.4 °C 54.5 °F /  12.5 °C 30in /  1015.7hPa OSO 1.9mph /  3km/h 5mph /  8km/h 83% 0in /  0.0mm
07:14 59.7 °F /  15.4 °C 54.3 °F /  12.4 °C 30in /  1015.7hPa SSO 2mph /  3.2km/h 4.6mph /  7.4km/h 82.4% 0in /  0.0mm
07:19 59.9 °F /  15.5 °C 54.3 °F /  12.4 °C 30in /  1015.9hPa SSE 2mph /  3.2km/h 5mph /  8km/h 82% 0in /  0.0mm
07:24 59.9 °F /  15.5 °C 54.5 °F /  12.5 °C 30in /  1015.9hPa SSE 2mph /  3.2km/h 5.8mph /  9.3km/h 82% 0in /  0.0mm
07:29 59.9 °F /  15.5 °C 54.5 °F /  12.5 °C 30in /  1015.9hPa Sur 2.3mph /  3.7km/h 6mph /  9.7km/h 82% 0in /  0.0mm
07:34 60.1 °F /  15.6 °C 54.5 °F /  12.5 °C 30in /  1015.9hPa SSO 2.9mph /  4.7km/h 5.9mph /  9.5km/h 82% 0in /  0.0mm
07:39 60.1 °F /  15.6 °C 54.5 °F /  12.5 °C 30in /  1015.9hPa Sur 3.2mph /  5.1km/h 6mph /  9.7km/h 82% 0in /  0.0mm
07:44 60.1 °F /  15.6 °C 54.5 °F /  12.5 °C 30in /  1015.9hPa Sur 3.6mph /  5.8km/h 6mph /  9.7km/h 82% 0in /  0.0mm
07:49 60.1 °F /  15.6 °C 54.7 °F /  12.6 °C 30in /  1016.0hPa SSO 3.4mph /  5.5km/h 6mph /  9.7km/h 82% 0in /  0.0mm
07:54 60.3 °F /  15.7 °C 54.5 °F /  12.5 °C 30in /  1016.0hPa SSO 3.1mph /  5km/h 6.9mph /  11.1km/h 81% 0in /  0.0mm
07:59 60.4 °F /  15.8 °C 54.7 °F /  12.6 °C 30in /  1016.0hPa SSO 3.5mph /  5.7km/h 7mph /  11.3km/h 81% 0in /  0.0mm
08:04 60.4 °F /  15.8 °C 54.7 °F /  12.6 °C 30in /  1016.1hPa SO 4.3mph /  6.9km/h 7mph /  11.3km/h 80.9% 0in /  0.0mm
08:09 60.6 °F /  15.9 °C 54.5 °F /  12.5 °C 30in /  1016.1hPa SSO 4.2mph /  6.8km/h 8.1mph /  13km/h 80% 0in /  0.0mm
08:14 60.6 °F /  15.9 °C 54.5 °F /  12.5 °C 30in /  1016.1hPa SSO 4mph /  6.5km/h 8.1mph /  13km/h 80% 0in /  0.0mm
08:19 60.8 °F /  16 °C 54.5 °F /  12.5 °C 30in /  1016.2hPa SSO 4.3mph /  6.9km/h 8.5mph /  13.7km/h 79.7% 0in /  0.0mm
08:24 61 °F /  16.1 °C 54.5 °F /  12.5 °C 30in /  1016.2hPa SSO 4.7mph /  7.6km/h 9mph /  14.5km/h 79.1% 0in /  0.0mm
08:29 61.2 °F /  16.2 °C 54.7 °F /  12.6 °C 30in /  1016.2hPa SO 4.5mph /  7.3km/h 7.4mph /  11.9km/h 79% 0in /  0.0mm
08:34 61.3 °F /  16.3 °C 54.3 °F /  12.4 °C 30in /  1016.2hPa SO 4.3mph /  6.9km/h 7mph /  11.3km/h 78% 0in /  0.0mm
08:39 61.3 °F /  16.3 °C 54.3 °F /  12.4 °C 30in /  1016.1hPa Sur 4mph /  6.5km/h 6mph /  9.7km/h 78% 0in /  0.0mm
08:44 61.5 °F /  16.4 °C 54.5 °F /  12.5 °C 30in /  1016.1hPa SO 3.6mph /  5.8km/h 6.4mph /  10.3km/h 78% 0in /  0.0mm
08:49 61.7 °F /  16.5 °C 54.9 °F /  12.7 °C 30in /  1016.1hPa SO 3.4mph /  5.5km/h 7mph /  11.3km/h 78% 0in /  0.0mm
08:54 62.1 °F /  16.7 °C 55 °F /  12.8 °C 30in /  1016.0hPa SO 3.1mph /  5km/h 7mph /  11.3km/h 77.7% 0in /  0.0mm
08:59 62.2 °F /  16.8 °C 55 °F /  12.8 °C 30in /  1016.0hPa SSO 3.1mph /  5km/h 6.4mph /  10.3km/h 76.9% 0in /  0.0mm
09:04 62.6 °F /  17 °C 55 °F /  12.8 °C 30in /  1016.1hPa SSO 3.1mph /  5km/h 10.4mph /  16.7km/h 76% 0in /  0.0mm
09:09 62.4 °F /  16.9 °C 55 °F /  12.8 °C 30in /  1016.1hPa Sur 4.1mph /  6.6km/h 10.4mph /  16.7km/h 76.6% 0in /  0.0mm
09:14 62.2 °F /  16.8 °C 55 °F /  12.8 °C 30in /  1016.1hPa SSO 5.9mph /  9.5km/h 10mph /  16.1km/h 77% 0in /  0.0mm
09:19 62.4 °F /  16.9 °C 55.4 °F /  13 °C 30in /  1016.1hPa SSO 5.3mph /  8.6km/h 7mph /  11.3km/h 77.8% 0in /  0.0mm
09:24 63 °F /  17.2 °C 55.6 °F /  13.1 °C 30in /  1015.9hPa Sur 4.3mph /  6.9km/h 6mph /  9.7km/h 77.2% 0in /  0.0mm
09:29 63.3 °F /  17.4 °C 55.6 °F /  13.1 °C 30in /  1015.9hPa SSO 4.2mph /  6.8km/h 6.9mph /  11.1km/h 76.1% 0in /  0.0mm
09:34 63.5 °F /  17.5 °C 55.8 °F /  13.2 °C 30in /  1015.9hPa SSO 4mph /  6.5km/h 7mph /  11.3km/h 76% 0in /  0.0mm
09:39 63.9 °F /  17.7 °C 55.9 °F /  13.3 °C 30in /  1015.9hPa Sur 4.1mph /  6.6km/h 8.1mph /  13km/h 75.4% 0in /  0.0mm
09:44 64.2 °F /  17.9 °C 55.9 °F /  13.3 °C 30in /  1015.9hPa SO 4.3mph /  6.9km/h 8.1mph /  13km/h 74.5% 0in /  0.0mm
09:49 64.8 °F /  18.2 °C 56.1 °F /  13.4 °C 30in /  1015.9hPa SSO 4.3mph /  6.9km/h 8mph /  12.9km/h 73.7% 0in /  0.0mm
09:54 64.9 °F /  18.3 °C 56.1 °F /  13.4 °C 30in /  1015.8hPa SSO 4.3mph /  6.9km/h 6mph /  9.7km/h 72.9% 0in /  0.0mm
09:59 65.1 °F /  18.4 °C 55.9 °F /  13.3 °C 30in /  1015.8hPa SSO 4mph /  6.5km/h 6mph /  9.7km/h 72.1% 0in /  0.0mm
10:04 65.1 °F /  18.4 °C 56.1 °F /  13.4 °C 30in /  1015.8hPa Sur 3.6mph /  5.8km/h 5.8mph /  9.3km/h 72.5% 0in /  0.0mm
10:09 65.5 °F /  18.6 °C 56.3 °F /  13.5 °C 30in /  1015.8hPa SO 3.6mph /  5.8km/h 6mph /  9.7km/h 72% 0in /  0.0mm
10:14 65.8 °F /  18.8 °C 56.3 °F /  13.5 °C 30in /  1015.8hPa ONO 3.6mph /  5.8km/h 6mph /  9.7km/h 71% 0in /  0.0mm
10:19 66.4 °F /  19.1 °C 56.3 °F /  13.5 °C 30in /  1015.8hPa Oeste 3.2mph /  5.1km/h 6mph /  9.7km/h 70% 0in /  0.0mm
10:24 66.6 °F /  19.2 °C 56.1 °F /  13.4 °C 30in /  1015.6hPa OSO 2.4mph /  3.9km/h 5.8mph /  9.3km/h 69% 0in /  0.0mm
10:29 66.7 °F /  19.3 °C 56.3 °F /  13.5 °C 30in /  1015.6hPa Oeste 2.7mph /  4.3km/h 6mph /  9.7km/h 69% 0in /  0.0mm
10:34 67.3 °F /  19.6 °C 56.3 °F /  13.5 °C 30in /  1015.6hPa Sur 3.1mph /  5km/h 6.2mph /  10km/h 67.8% 0in /  0.0mm
10:39 68 °F /  20 °C 56.5 °F /  13.6 °C 30in /  1015.5hPa SO 2.9mph /  4.6km/h 6mph /  9.7km/h 66.7% 0in /  0.0mm
10:44 68.5 °F /  20.3 °C 56.7 °F /  13.7 °C 30in /  1015.5hPa SSE 2.4mph /  3.9km/h 6mph /  9.7km/h 65.7% 0in /  0.0mm
10:49 69.3 °F /  20.7 °C 56.3 °F /  13.5 °C 30in /  1015.5hPa OSO 2.4mph /  3.9km/h 5.9mph /  9.5km/h 63.4% 0in /  0.0mm
10:54 69.4 °F /  20.8 °C 55.9 °F /  13.3 °C 30in /  1015.4hPa ONO 2.4mph /  3.9km/h 6.2mph /  10km/h 62.2% 0in /  0.0mm
10:59 69.6 °F /  20.9 °C 56.1 °F /  13.4 °C 30in /  1015.4hPa Oeste 2.6mph /  4.2km/h 6mph /  9.7km/h 62% 0in /  0.0mm
11:04 70.2 °F /  21.2 °C 55.6 °F /  13.1 °C 30in /  1015.4hPa SO 2.9mph /  4.7km/h 6.2mph /  10km/h 60.2% 0in /  0.0mm
11:09 70.3 °F /  21.3 °C 55.4 °F /  13 °C 30in /  1015.2hPa NO 2.7mph /  4.3km/h 6mph /  9.7km/h 58.9% 0in /  0.0mm
11:14 71.1 °F /  21.7 °C 55.6 °F /  13.1 °C 30in /  1015.2hPa ENE 2.4mph /  3.9km/h 6mph /  9.7km/h 57.9% 0in /  0.0mm
11:19 72 °F /  22.2 °C 55.8 °F /  13.2 °C 30in /  1015.2hPa NE 2.4mph /  3.9km/h 5mph /  8km/h 56.5% 0in /  0.0mm
11:24 72.5 °F /  22.5 °C 55.2 °F /  12.9 °C 30in /  1015.1hPa NE 2.4mph /  3.9km/h 5mph /  8km/h 54.6% 0in /  0.0mm
11:29 72.9 °F /  22.7 °C 55 °F /  12.8 °C 30in /  1015.1hPa NE 2.4mph /  3.9km/h 6.2mph /  10km/h 53.6% 0in /  0.0mm
11:34 73 °F /  22.8 °C 54.5 °F /  12.5 °C 30in /  1015.1hPa Oeste 2.4mph /  3.9km/h 6mph /  9.7km/h 52.3% 0in /  0.0mm
11:39 73 °F /  22.8 °C 54.5 °F /  12.5 °C 30in /  1015.1hPa Oeste 2.6mph /  4.2km/h 6mph /  9.7km/h 52% 0in /  0.0mm
11:44 73.2 °F /  22.9 °C 54.1 °F /  12.3 °C 30in /  1015.1hPa Oeste 2.9mph /  4.7km/h 6.9mph /  11.1km/h 51.1% 0in /  0.0mm
11:49 73.8 °F /  23.2 °C 53.1 °F /  11.7 °C 30in /  1015.1hPa SSO 2.9mph /  4.7km/h 8.1mph /  13km/h 48.4% 0in /  0.0mm
11:54 74.3 °F /  23.5 °C 53.1 °F /  11.7 °C 30in /  1014.9hPa SO 2.9mph /  4.7km/h 10.7mph /  17.2km/h 47.7% 0in /  0.0mm
11:59 74.7 °F /  23.7 °C 52.2 °F /  11.2 °C 30in /  1014.9hPa Sur 3.4mph /  5.5km/h 11mph /  17.7km/h 45.6% 0in /  0.0mm
12:04 74.8 °F /  23.8 °C 52.5 °F /  11.4 °C 30in /  1014.9hPa SSE 4.3mph /  6.9km/h 12.5mph /  20.1km/h 45.8% 0in /  0.0mm
12:09 75.4 °F /  24.1 °C 50.9 °F /  10.5 °C 30in /  1014.9hPa SSE 4.5mph /  7.2km/h 13mph /  20.9km/h 42.4% 0in /  0.0mm
12:14 75.7 °F /  24.3 °C 50.9 °F /  10.5 °C 30in /  1014.9hPa SSE 4.7mph /  7.6km/h 15mph /  24.1km/h 41.8% 0in /  0.0mm
12:19 75.9 °F /  24.4 °C 50.5 °F /  10.3 °C 30in /  1014.9hPa Sur 6mph /  9.6km/h 15mph /  24.1km/h 41% 0in /  0.0mm
12:24 76.1 °F /  24.5 °C 50.7 °F /  10.4 °C 30in /  1014.5hPa SE 8.1mph /  13km/h 14mph /  22.5km/h 41% 0in /  0.0mm
12:29 76.5 °F /  24.7 °C 51.3 °F /  10.7 °C 30in /  1014.5hPa SSE 7.4mph /  11.9km/h 16.1mph /  25.9km/h 41.5% 0in /  0.0mm
12:34 76.5 °F /  24.7 °C 51.1 °F /  10.6 °C 30in /  1014.5hPa SSE 6.2mph /  10km/h 16mph /  25.7km/h 41.2% 0in /  0.0mm
12:39 76.6 °F /  24.8 °C 51.3 °F /  10.7 °C 30in /  1014.5hPa SSE 6.6mph /  10.7km/h 13mph /  20.9km/h 41.1% 0in /  0.0mm
12:44 77.2 °F /  25.1 °C 51.4 °F /  10.8 °C 30in /  1014.5hPa SE 7.4mph /  11.9km/h 13.8mph /  22.2km/h 40.5% 0in /  0.0mm
12:49 77.2 °F /  25.1 °C 51.1 °F /  10.6 °C 30in /  1014.5hPa SSE 7.5mph /  12km/h 17.3mph /  27.8km/h 40.1% 0in /  0.0mm
12:54 77 °F /  25 °C 50.7 °F /  10.4 °C 30in /  1014.4hPa SSE 7.6mph /  12.2km/h 18.4mph /  29.6km/h 39.9% 0in /  0.0mm
12:59 77.4 °F /  25.2 °C 50.5 °F /  10.3 °C 30in /  1014.4hPa SE 8.7mph /  14km/h 18mph /  29km/h 39.2% 0in /  0.0mm
13:04 77.4 °F /  25.2 °C 50.5 °F /  10.3 °C 30in /  1014.4hPa SSE 10.2mph /  16.4km/h 17.5mph /  28.2km/h 39% 0in /  0.0mm
13:09 77.4 °F /  25.2 °C 50.4 °F /  10.2 °C 30in /  1014.3hPa SE 9.6mph /  15.4km/h 17mph /  27.4km/h 38.8% 0in /  0.0mm
13:14 77.5 °F /  25.3 °C 50.2 °F /  10.1 °C 30in /  1014.3hPa SSO 8.5mph /  13.7km/h 13.8mph /  22.2km/h 38.5% 0in /  0.0mm
13:19 77.5 °F /  25.3 °C 50 °F /  10 °C 30in /  1014.3hPa Sur 8.1mph /  13.1km/h 14mph /  22.5km/h 38.2% 0in /  0.0mm
13:24 77.5 °F /  25.3 °C 50.5 °F /  10.3 °C 29.9in /  1014.1hPa ESE 7.6mph /  12.2km/h 18.4mph /  29.6km/h 39% 0in /  0.0mm
13:29 77.7 °F /  25.4 °C 50.9 °F /  10.5 °C 29.9in /  1014.1hPa SSE 8mph /  12.8km/h 18mph /  29km/h 39.1% 0in /  0.0mm
13:34 77.9 °F /  25.5 °C 50.5 °F /  10.3 °C 29.9in /  1014.1hPa Sur 8.5mph /  13.7km/h 16.1mph /  25.9km/h 38.5% 0in /  0.0mm
13:39 78.1 °F /  25.6 °C 51.1 °F /  10.6 °C 29.9in /  1013.9hPa SE 8.5mph /  13.7km/h 16mph /  25.7km/h 38.9% 0in /  0.0mm
13:44 78.3 °F /  25.7 °C 50.4 °F /  10.2 °C 29.9in /  1013.9hPa SSE 8.5mph /  13.7km/h 15mph /  24.1km/h 37.9% 0in /  0.0mm
13:49 77.9 °F /  25.5 °C 50 °F /  10 °C 29.9in /  1013.9hPa Sur 8.6mph /  13.8km/h 14mph /  22.5km/h 37.8% 0in /  0.0mm
13:54 77.5 °F /  25.3 °C 50.2 °F /  10.1 °C 29.9in /  1013.8hPa SE 8.7mph /  14km/h 17.3mph /  27.8km/h 38.4% 0in /  0.0mm
13:59 78.3 °F /  25.7 °C 50.5 °F /  10.3 °C 29.9in /  1013.8hPa SSO 8.3mph /  13.3km/h 17mph /  27.4km/h 38% 0in /  0.0mm
14:04 78.4 °F /  25.8 °C 50.2 °F /  10.1 °C 29.9in /  1013.8hPa SSO 7.6mph /  12.2km/h 17mph /  27.4km/h 37.4% 0in /  0.0mm
14:09 78.3 °F /  25.7 °C 50 °F /  10 °C 29.9in /  1013.7hPa SSO 8.2mph /  13.2km/h 17.3mph /  27.8km/h 37.3% 0in /  0.0mm
14:14 77.9 °F /  25.5 °C 50.4 °F /  10.2 °C 29.9in /  1013.7hPa Sur 9.2mph /  14.8km/h 17mph /  27.4km/h 38% 0in /  0.0mm
14:19 78.4 °F /  25.8 °C 50.5 °F /  10.3 °C 29.9in /  1013.7hPa Sur 9.4mph /  15.1km/h 16.3mph /  26.2km/h 37.9% 0in /  0.0mm
14:24 78.6 °F /  25.9 °C 50.2 °F /  10.1 °C 29.9in /  1013.6hPa SSE 9.7mph /  15.6km/h 16.1mph /  25.9km/h 37% 0in /  0.0mm
14:29 78.4 °F /  25.8 °C 50 °F /  10 °C 29.9in /  1013.6hPa Sur 9.5mph /  15.3km/h 16mph /  25.7km/h 37% 0in /  0.0mm
14:34 78.6 °F /  25.9 °C 50.4 °F /  10.2 °C 29.9in /  1013.6hPa SSE 9.2mph /  14.8km/h 17.3mph /  27.8km/h 37.3% 0in /  0.0mm
14:39 78.8 °F /  26 °C 50.4 °F /  10.2 °C 29.9in /  1013.5hPa SSE 9mph /  14.5km/h 17mph /  27.4km/h 37% 0in /  0.0mm
14:44 78.8 °F /  26 °C 50.7 °F /  10.4 °C 29.9in /  1013.5hPa Sur 8.7mph /  14km/h 19mph /  30.6km/h 37.6% 0in /  0.0mm
14:49 78.8 °F /  26 °C 50.7 °F /  10.4 °C 29.9in /  1013.5hPa SSE 8.3mph /  13.4km/h 20.4mph /  32.8km/h 37.5% 0in /  0.0mm
14:54 78.6 °F /  25.9 °C 50.5 °F /  10.3 °C 29.9in /  1013.3hPa SSE 7.6mph /  12.2km/h 21.3mph /  34.3km/h 37.6% 0in /  0.0mm
14:59 78.1 °F /  25.6 °C 50.4 °F /  10.2 °C 29.9in /  1013.3hPa SE 9.7mph /  15.6km/h 21.9mph /  35.2km/h 38% 0in /  0.0mm
15:04 78.3 °F /  25.7 °C 50.4 °F /  10.2 °C 29.9in /  1013.3hPa SE 13mph /  20.9km/h 23mph /  37km/h 37.8% 0in /  0.0mm
15:09 78.3 °F /  25.7 °C 50.4 °F /  10.2 °C 29.9in /  1013.3hPa SE 13.2mph /  21.2km/h 23mph /  37km/h 37.8% 0in /  0.0mm
15:14 78.4 °F /  25.8 °C 50.5 °F /  10.3 °C 29.9in /  1013.3hPa SE 13.5mph /  21.7km/h 23mph /  37km/h 37.6% 0in /  0.0mm
15:19 78.4 °F /  25.8 °C 50 °F /  10 °C 29.9in /  1013.3hPa SE 13.3mph /  21.4km/h 23.5mph /  37.8km/h 37% 0in /  0.0mm
15:24 78.4 °F /  25.8 °C 50.4 °F /  10.2 °C 29.9in /  1013.1hPa SE 13mph /  20.9km/h 23mph /  37km/h 37.5% 0in /  0.0mm
15:29 78.6 °F /  25.9 °C 50.4 °F /  10.2 °C 29.9in /  1013.1hPa SSE 13.2mph /  21.2km/h 23mph /  37km/h 37.4% 0in /  0.0mm
15:34 78.3 °F /  25.7 °C 50.4 °F /  10.2 °C 29.9in /  1013.1hPa SSE 13.5mph /  21.7km/h 23mph /  37km/h 37.6% 0in /  0.0mm
15:39 78.4 °F /  25.8 °C 50.5 °F /  10.3 °C 29.9in /  1013.1hPa SE 13.6mph /  21.9km/h 22mph /  35.4km/h 37.8% 0in /  0.0mm
15:44 78.6 °F /  25.9 °C 50.5 °F /  10.3 °C 29.9in /  1013.1hPa SE 13.7mph /  22.1km/h 24.2mph /  38.9km/h 37.5% 0in /  0.0mm
15:49 78.3 °F /  25.7 °C 50.2 °F /  10.1 °C 29.9in /  1013.1hPa SE 13.6mph /  21.9km/h 26.8mph /  43.1km/h 37.5% 0in /  0.0mm
15:54 78.1 °F /  25.6 °C 50.5 °F /  10.3 °C 29.9in /  1013.0hPa SE 13.5mph /  21.7km/h 27mph /  43.5km/h 38% 0in /  0.0mm
15:59 78.3 °F /  25.7 °C 50.4 °F /  10.2 °C 29.9in /  1013.0hPa SE 13.7mph /  22.1km/h 23mph /  37km/h 37.9% 0in /  0.0mm
16:04 78.1 °F /  25.6 °C 50.4 °F /  10.2 °C 29.9in /  1013.0hPa SE 14mph /  22.5km/h 23mph /  37km/h 37.9% 0in /  0.0mm
16:09 77.9 °F /  25.5 °C 50.4 °F /  10.2 °C 29.9in /  1012.8hPa SE 14.2mph /  22.8km/h 23mph /  37km/h 38% 0in /  0.0mm
16:14 78.3 °F /  25.7 °C 50.5 °F /  10.3 °C 29.9in /  1012.8hPa SE 14.5mph /  23.3km/h 23mph /  37km/h 38% 0in /  0.0mm
16:19 78.6 °F /  25.9 °C 50.5 °F /  10.3 °C 29.9in /  1012.8hPa SSE 13.7mph /  22.1km/h 22mph /  35.4km/h 37.6% 0in /  0.0mm
16:24 78.8 °F /  26 °C 50.5 °F /  10.3 °C 29.9in /  1012.6hPa SSE 12.5mph /  20.1km/h 26.5mph /  42.6km/h 37.2% 0in /  0.0mm
16:29 79 °F /  26.1 °C 50.4 °F /  10.2 °C 29.9in /  1012.6hPa Sur 12.9mph /  20.7km/h 27.6mph /  44.4km/h 37% 0in /  0.0mm
16:34 78.3 °F /  25.7 °C 50.4 °F /  10.2 °C 29.9in /  1012.6hPa Sur 13.5mph /  21.7km/h 28mph /  45.1km/h 37.7% 0in /  0.0mm
16:39 78.3 °F /  25.7 °C 50.5 °F /  10.3 °C 29.9in /  1012.6hPa SSE 13.9mph /  22.3km/h 23.5mph /  37.8km/h 38% 0in /  0.0mm
16:44 77.9 °F /  25.5 °C 50.5 °F /  10.3 °C 29.9in /  1012.6hPa SSE 14.5mph /  23.3km/h 25.3mph /  40.7km/h 38.4% 0in /  0.0mm
16:49 78.3 °F /  25.7 °C 51.3 °F /  10.7 °C 29.9in /  1012.6hPa SSE 14.6mph /  23.5km/h 25.3mph /  40.7km/h 39% 0in /  0.0mm
16:54 78.1 °F /  25.6 °C 51.1 °F /  10.6 °C 29.9in /  1012.5hPa SSE 14.7mph /  23.7km/h 25.3mph /  40.7km/h 39% 0in /  0.0mm
16:59 77.7 °F /  25.4 °C 50.9 °F /  10.5 °C 29.9in /  1012.5hPa SSE 15.2mph /  24.4km/h 25mph /  40.2km/h 39.1% 0in /  0.0mm
17:04 78.1 °F /  25.6 °C 51.3 °F /  10.7 °C 29.9in /  1012.5hPa SSE 15.9mph /  25.6km/h 23mph /  37km/h 39% 0in /  0.0mm
17:09 77.9 °F /  25.5 °C 50.7 °F /  10.4 °C 29.9in /  1012.3hPa SSE 15.2mph /  24.4km/h 25.3mph /  40.7km/h 38.8% 0in /  0.0mm
17:14 77.4 °F /  25.2 °C 50.9 °F /  10.5 °C 29.9in /  1012.3hPa SSE 14mph /  22.5km/h 25mph /  40.2km/h 39.8% 0in /  0.0mm
17:19 77.5 °F /  25.3 °C 51.3 °F /  10.7 °C 29.9in /  1012.3hPa SSE 14.2mph /  22.9km/h 25mph /  40.2km/h 40% 0in /  0.0mm
17:24 78.1 °F /  25.6 °C 51.3 °F /  10.7 °C 29.9in /  1012.3hPa Sur 14.7mph /  23.7km/h 26.1mph /  42km/h 39.4% 0in /  0.0mm
17:29 77.7 °F /  25.4 °C 50.7 °F /  10.4 °C 29.9in /  1012.3hPa Sur 14.6mph /  23.5km/h 27.9mph /  44.9km/h 39.1% 0in /  0.0mm
17:34 77.2 °F /  25.1 °C 50.9 °F /  10.5 °C 29.9in /  1012.3hPa SSE 14.5mph /  23.3km/h 28mph /  45.1km/h 39.9% 0in /  0.0mm
17:39 77.4 °F /  25.2 °C 50.7 °F /  10.4 °C 29.9in /  1012.2hPa Sur 14.7mph /  23.7km/h 23mph /  37km/h 39.3% 0in /  0.0mm
17:44 77.4 °F /  25.2 °C 50.9 °F /  10.5 °C 29.9in /  1012.2hPa Sur 15.2mph /  24.5km/h 23mph /  37km/h 39.6% 0in /  0.0mm
17:49 77.4 °F /  25.2 °C 50.5 °F /  10.3 °C 29.9in /  1012.3hPa SSE 14.7mph /  23.7km/h 23mph /  37km/h 39% 0in /  0.0mm
17:54 77.5 °F /  25.3 °C 50.7 °F /  10.4 °C 29.9in /  1012.3hPa SSE 14mph /  22.5km/h 22mph /  35.4km/h 39.2% 0in /  0.0mm
17:59 77.4 °F /  25.2 °C 51.1 °F /  10.6 °C 29.9in /  1012.3hPa Sur 13.8mph /  22.2km/h 22mph /  35.4km/h 40% 0in /  0.0mm
18:04 77.2 °F /  25.1 °C 51.6 °F /  10.9 °C 29.9in /  1012.3hPa SSE 13.5mph /  21.7km/h 22mph /  35.4km/h 40.8% 0in /  0.0mm
18:09 77.5 °F /  25.3 °C 51.6 °F /  10.9 °C 29.9in /  1012.1hPa SSE 13.5mph /  21.7km/h 21.3mph /  34.3km/h 40.2% 0in /  0.0mm
18:14 77.5 °F /  25.3 °C 51.6 °F /  10.9 °C 29.9in /  1012.1hPa SSE 13.5mph /  21.7km/h 24.2mph /  38.9km/h 40.5% 0in /  0.0mm
18:19 77.4 °F /  25.2 °C 51.3 °F /  10.7 °C 29.9in /  1012.1hPa SSE 13.5mph /  21.7km/h 26.5mph /  42.6km/h 40.1% 0in /  0.0mm
18:24 77.2 °F /  25.1 °C 51.4 °F /  10.8 °C 29.9in /  1012.0hPa Sur 13.5mph /  21.7km/h 26mph /  41.8km/h 40.9% 0in /  0.0mm
18:29 77 °F /  25 °C 51.4 °F /  10.8 °C 29.9in /  1012.0hPa SSE 13.7mph /  22km/h 23.7mph /  38.1km/h 41% 0in /  0.0mm
18:34 76.6 °F /  24.8 °C 51.3 °F /  10.7 °C 29.9in /  1012.0hPa SSE 14mph /  22.5km/h 24.2mph /  38.9km/h 41% 0in /  0.0mm
18:39 76.8 °F /  24.9 °C 51.4 °F /  10.8 °C 29.9in /  1012.0hPa SSE 14mph /  22.5km/h 22mph /  35.4km/h 41.1% 0in /  0.0mm
18:44 77.2 °F /  25.1 °C 51.6 °F /  10.9 °C 29.9in /  1012.0hPa SSE 14mph /  22.5km/h 21.9mph /  35.2km/h 41% 0in /  0.0mm
18:49 77 °F /  25 °C 51.6 °F /  10.9 °C 29.9in /  1012.0hPa SSE 13.4mph /  21.5km/h 22mph /  35.4km/h 41% 0in /  0.0mm
18:54 77 °F /  25 °C 51.6 °F /  10.9 °C 29.9in /  1011.9hPa SSE 12.3mph /  19.8km/h 21mph /  33.8km/h 41% 0in /  0.0mm
18:59 77.2 °F /  25.1 °C 51.4 °F /  10.8 °C 29.9in /  1011.9hPa SSE 12.1mph /  19.5km/h 18.4mph /  29.6km/h 40.7% 0in /  0.0mm
19:04 77.2 °F /  25.1 °C 51.6 °F /  10.9 °C 29.9in /  1011.9hPa SSE 11.8mph /  19km/h 18.4mph /  29.6km/h 41% 0in /  0.0mm
19:09 77.2 °F /  25.1 °C 51.6 °F /  10.9 °C 29.9in /  1011.8hPa SSE 11.6mph /  18.6km/h 20.1mph /  32.3km/h 41% 0in /  0.0mm
19:14 77.2 °F /  25.1 °C 51.6 °F /  10.9 °C 29.9in /  1011.8hPa Sur 11.2mph /  18km/h 21mph /  33.8km/h 41% 0in /  0.0mm
19:19 77 °F /  25 °C 51.4 °F /  10.8 °C 29.9in /  1011.8hPa SSE 11.2mph /  18km/h 21mph /  33.8km/h 41% 0in /  0.0mm
19:24 76.6 °F /  24.8 °C 51.1 °F /  10.6 °C 29.9in /  1011.6hPa Sur 11.2mph /  18km/h 21mph /  33.8km/h 40.9% 0in /  0.0mm
19:29 76.5 °F /  24.7 °C 51.1 °F /  10.6 °C 29.9in /  1011.6hPa SSE 11.4mph /  18.4km/h 21mph /  33.8km/h 41% 0in /  0.0mm
19:34 76.5 °F /  24.7 °C 50.4 °F /  10.2 °C 29.9in /  1011.9hPa SSE 11.8mph /  19km/h 19mph /  30.6km/h 40.3% 0in /  0.0mm
19:39 76.3 °F /  24.6 °C 50.2 °F /  10.1 °C 29.9in /  1011.9hPa Sur 11.8mph /  19km/h 19mph /  30.6km/h 40% 0in /  0.0mm
19:44 76.1 °F /  24.5 °C 50.2 °F /  10.1 °C 29.9in /  1011.9hPa SSE 11.8mph /  19km/h 21.3mph /  34.3km/h 40.4% 0in /  0.0mm
19:49 75.7 °F /  24.3 °C 50.4 °F /  10.2 °C 29.9in /  1011.9hPa SSE 12.4mph /  20km/h 21mph /  33.8km/h 41% 0in /  0.0mm
19:54 75.7 °F /  24.3 °C 50.4 °F /  10.2 °C 29.9in /  1011.9hPa SSE 13.5mph /  21.7km/h 19mph /  30.6km/h 41% 0in /  0.0mm
19:59 76.1 °F /  24.5 °C 50.7 °F /  10.4 °C 29.9in /  1011.9hPa Sur 11.6mph /  18.6km/h 14mph /  22.5km/h 41% 0in /  0.0mm
20:04 76.1 °F /  24.5 °C 50.7 °F /  10.4 °C 29.9in /  1012.0hPa SSE 8.5mph /  13.7km/h 14mph /  22.5km/h 41% 0in /  0.0mm
20:09 75.7 °F /  24.3 °C 50.4 °F /  10.2 °C 29.9in /  1012.0hPa SSE 8.9mph /  14.4km/h 18.4mph /  29.6km/h 41% 0in /  0.0mm
20:14 75.6 °F /  24.2 °C 50.2 °F /  10.1 °C 29.9in /  1012.0hPa SSE 9.7mph /  15.6km/h 18mph /  29km/h 41% 0in /  0.0mm
20:19 75.6 °F /  24.2 °C 50.2 °F /  10.1 °C 29.9in /  1012.1hPa SE 9.5mph /  15.3km/h 17mph /  27.4km/h 41% 0in /  0.0mm
20:24 75.6 °F /  24.2 °C 50.2 °F /  10.1 °C 29.9in /  1012.1hPa SE 9.2mph /  14.8km/h 15mph /  24.1km/h 41.1% 0in /  0.0mm
20:29 75.6 °F /  24.2 °C 50.2 °F /  10.1 °C 29.9in /  1012.1hPa SE 8.2mph /  13.2km/h 14mph /  22.5km/h 41% 0in /  0.0mm
20:34 75.4 °F /  24.1 °C 50 °F /  10 °C 29.9in /  1012.3hPa SE 6.4mph /  10.3km/h 14mph /  22.5km/h 41.1% 0in /  0.0mm
20:39 75 °F /  23.9 °C 50.2 °F /  10.1 °C 29.9in /  1012.3hPa SE 6.4mph /  10.3km/h 13mph /  20.9km/h 41.7% 0in /  0.0mm
20:44 75 °F /  23.9 °C 50.4 °F /  10.2 °C 29.9in /  1012.3hPa SE 6.4mph /  10.3km/h 10mph /  16.1km/h 42% 0in /  0.0mm
20:49 74.8 °F /  23.8 °C 50.2 °F /  10.1 °C 29.9in /  1012.4hPa SE 6.2mph /  10km/h 9.7mph /  15.6km/h 42% 0in /  0.0mm
20:54 74.7 °F /  23.7 °C 50.2 °F /  10.1 °C 29.9in /  1012.4hPa ESE 5.9mph /  9.5km/h 10mph /  16.1km/h 42.1% 0in /  0.0mm
20:59 74.5 °F /  23.6 °C 50.5 °F /  10.3 °C 29.9in /  1012.4hPa ESE 5.7mph /  9.2km/h 11.8mph /  19km/h 43% 0in /  0.0mm
21:04 73.9 °F /  23.3 °C 50.7 °F /  10.4 °C 29.9in /  1012.5hPa SE 5.4mph /  8.7km/h 12mph /  19.3km/h 43.9% 0in /  0.0mm
21:09 73.8 °F /  23.2 °C 50.5 °F /  10.3 °C 29.9in /  1012.5hPa SE 5.6mph /  9km/h 12mph /  19.3km/h 44% 0in /  0.0mm
21:14 73.4 °F /  23 °C 50.7 °F /  10.4 °C 29.9in /  1012.5hPa SE 5.9mph /  9.5km/h 11mph /  17.7km/h 44.8% 0in /  0.0mm
21:19 73.2 °F /  22.9 °C 50.5 °F /  10.3 °C 29.9in /  1012.6hPa ESE 6.1mph /  9.8km/h 11.5mph /  18.5km/h 45% 0in /  0.0mm
21:24 73 °F /  22.8 °C 50.4 °F /  10.2 °C 29.9in /  1012.6hPa SE 6.4mph /  10.3km/h 12mph /  19.3km/h 45% 0in /  0.0mm
21:29 72.9 °F /  22.7 °C 50.4 °F /  10.2 °C 29.9in /  1012.6hPa SE 6.4mph /  10.3km/h 13.8mph /  22.2km/h 45% 0in /  0.0mm
21:34 72.7 °F /  22.6 °C 50.2 °F /  10.1 °C 29.9in /  1012.6hPa SE 6.4mph /  10.3km/h 14mph /  22.5km/h 45.1% 0in /  0.0mm
21:39 72.3 °F /  22.4 °C 50.4 °F /  10.2 °C 29.9in /  1012.6hPa SE 6.6mph /  10.6km/h 13mph /  20.9km/h 46% 0in /  0.0mm
21:44 72.1 °F /  22.3 °C 50.4 °F /  10.2 °C 29.9in /  1012.6hPa SE 6.9mph /  11.1km/h 13mph /  20.9km/h 46.3% 0in /  0.0mm
21:49 72 °F /  22.2 °C 50.5 °F /  10.3 °C 29.9in /  1012.7hPa SE 6.9mph /  11.1km/h 12mph /  19.3km/h 47% 0in /  0.0mm
21:54 72 °F /  22.2 °C 50.5 °F /  10.3 °C 29.9in /  1012.7hPa SE 6.9mph /  11.1km/h 10.4mph /  16.7km/h 47% 0in /  0.0mm
21:59 71.8 °F /  22.1 °C 50.5 °F /  10.3 °C 29.9in /  1012.7hPa SE 6.3mph /  10.1km/h 10mph /  16.1km/h 47% 0in /  0.0mm
22:04 71.6 °F /  22 °C 50.4 °F /  10.2 °C 29.9in /  1012.8hPa SE 5.2mph /  8.4km/h 9mph /  14.5km/h 47% 0in /  0.0mm
22:09 71.6 °F /  22 °C 50.4 °F /  10.2 °C 29.9in /  1012.8hPa SE 5.2mph /  8.4km/h 7mph /  11.3km/h 47% 0in /  0.0mm
22:14 71.4 °F /  21.9 °C 50.5 °F /  10.3 °C 29.9in /  1012.8hPa ESE 5.2mph /  8.4km/h 7mph /  11.3km/h 47.6% 0in /  0.0mm
22:19 71.4 °F /  21.9 °C 50.7 °F /  10.4 °C 29.9in /  1013.0hPa ESE 4.8mph /  7.7km/h 7mph /  11.3km/h 48% 0in /  0.0mm
22:24 71.2 °F /  21.8 °C 50.5 °F /  10.3 °C 29.9in /  1013.0hPa ESE 4mph /  6.5km/h 5.2mph /  8.4km/h 48% 0in /  0.0mm
22:29 71.1 °F /  21.7 °C 50.4 °F /  10.2 °C 29.9in /  1013.0hPa ESE 3.6mph /  5.8km/h 5mph /  8km/h 48% 0in /  0.0mm
22:34 70.9 °F /  21.6 °C 50.2 °F /  10.1 °C 29.9in /  1013.4hPa Este 2.9mph /  4.7km/h 5mph /  8km/h 48% 0in /  0.0mm
22:39 70.9 °F /  21.6 °C 50.4 °F /  10.2 °C 29.9in /  1013.4hPa ENE 2.5mph /  4.1km/h 5mph /  8km/h 48.4% 0in /  0.0mm
22:44 70.7 °F /  21.5 °C 50.5 °F /  10.3 °C 29.9in /  1013.4hPa NNE 2mph /  3.2km/h 5.2mph /  8.4km/h 49.2% 0in /  0.0mm
22:49 70.3 °F /  21.3 °C 50.5 °F /  10.3 °C 29.9in /  1013.6hPa NE 2.6mph /  4.2km/h 7.4mph /  11.9km/h 49.8% 0in /  0.0mm
22:54 70.2 °F /  21.2 °C 50.5 °F /  10.3 °C 29.9in /  1013.6hPa NE 3.6mph /  5.8km/h 7mph /  11.3km/h 50% 0in /  0.0mm
22:59 70.2 °F /  21.2 °C 50.5 °F /  10.3 °C 29.9in /  1013.6hPa NE 3.3mph /  5.3km/h 5.8mph /  9.3km/h 50% 0in /  0.0mm
23:04 70.2 °F /  21.2 °C 50.5 °F /  10.3 °C 29.9in /  1013.6hPa ENE 2.9mph /  4.6km/h 6.2mph /  10km/h 50% 0in /  0.0mm
23:09 70.2 °F /  21.2 °C 50.5 °F /  10.3 °C 29.9in /  1013.6hPa NE 3mph /  4.8km/h 6mph /  9.7km/h 50% 0in /  0.0mm
23:14 70 °F /  21.1 °C 50.5 °F /  10.3 °C 29.9in /  1013.6hPa NNE 3.1mph /  5km/h 6.9mph /  11.1km/h 50% 0in /  0.0mm
23:19 70 °F /  21.1 °C 50.7 °F /  10.4 °C 29.9in /  1013.7hPa NNE 3.5mph /  5.7km/h 8.1mph /  13km/h 50.7% 0in /  0.0mm
23:24 69.6 °F /  20.9 °C 50.7 °F /  10.4 °C 29.9in /  1013.7hPa NE 4.3mph /  6.9km/h 8mph /  12.9km/h 51% 0in /  0.0mm
23:29 69.4 °F /  20.8 °C 50.9 °F /  10.5 °C 29.9in /  1013.7hPa NE 4.3mph /  6.9km/h 7mph /  11.3km/h 51.9% 0in /  0.0mm
23:34 69.3 °F /  20.7 °C 50.9 °F /  10.5 °C 29.9in /  1013.7hPa NE 4.3mph /  6.9km/h 6.9mph /  11.1km/h 52% 0in /  0.0mm
23:39 69.3 °F /  20.7 °C 51.1 °F /  10.6 °C 29.9in /  1013.6hPa NNE 4.2mph /  6.8km/h 7.4mph /  11.9km/h 52.4% 0in /  0.0mm
23:44 68.9 °F /  20.5 °C 51.1 °F /  10.6 °C 29.9in /  1013.6hPa NNE 4mph /  6.5km/h 7.4mph /  11.9km/h 53% 0in /  0.0mm
23:49 68.5 °F /  20.3 °C 50.9 °F /  10.5 °C 29.9in /  1013.8hPa NE 4.5mph /  7.2km/h 7.4mph /  11.9km/h 53.3% 0in /  0.0mm
23:54 68.4 °F /  20.2 °C 50.9 °F /  10.5 °C 29.9in /  1013.8hPa NE 5.2mph /  8.4km/h 8.1mph /  13km/h 53.7% 0in /  0.0mm
23:59 68.2 °F /  20.1 °C 51.6 °F /  10.9 °C 29.9in /  1013.8hPa NNE 5.2mph /  8.4km/h 10mph /  16.1km/h 55.5% 0in /  0.0mm
Murcia-Puente Tocinos, España
Compliments of Weather Underground - 3 mb

La estación de MeteoMurcia.com, publica sus datos en los siguientes proyectos:

Weather Underground PWS IMURCIAP2 Meteoclimatic www.awekas.at

W3Counter
Web Analytics